Time;durP1;ratioP1;P1;durP2;ratioP2;P2;SDS_P1;SDS_P2;PMS_P1;PMS_P2;Temp;Humidity;BMP_temperature;BMP_pressure;BME280_temperature;BME280_humidity;BME280_pressure;Samples;Min_cycle;Max_cycle;Signal;HPM_P1;HPM_P2
2023/12/03 00:00:12;;;;;;;30.15;11.25;;;-0.20;99.90;;;;;;4980919;28;20045;-67
2023/12/03 00:02:38;;;;;;;36.70;14.70;;;-0.20;99.90;;;;;;4964240;28;20486;-67
2023/12/03 00:05:05;;;;;;;39.55;16.70;;;-0.20;99.90;;;;;;4986734;28;20022;-67
2023/12/03 00:07:32;;;;;;;35.88;13.40;;;-0.20;99.90;;;;;;4985448;28;20429;-67
2023/12/03 00:09:58;;;;;;;34.95;13.95;;;-0.30;99.90;;;;;;4964530;28;20510;-67
2023/12/03 00:12:23;;;;;;;35.28;14.15;;;-0.30;99.90;;;;;;4984188;28;20084;-67
2023/12/03 00:14:49;;;;;;;37.13;14.80;;;-0.30;99.90;;;;;;4983446;28;20026;-69
2023/12/03 00:17:15;;;;;;;43.05;15.25;;;-0.30;99.90;;;;;;4983333;28;20030;-70
2023/12/03 00:19:41;;;;;;;41.95;16.88;;;-0.30;99.90;;;;;;4965366;28;20872;-69
2023/12/03 00:22:07;;;;;;;38.70;15.07;;;-0.30;99.90;;;;;;4983412;28;20117;-69
2023/12/03 00:24:33;;;;;;;36.95;13.05;;;-0.30;99.90;;;;;;4969803;28;20034;-69
2023/12/03 00:26:59;;;;;;;41.83;14.40;;;-0.30;99.90;;;;;;4981824;28;20101;-70
2023/12/03 00:29:27;;;;;;;43.58;12.65;;;-0.20;99.90;;;;;;4981416;28;20088;-70
2023/12/03 00:31:53;;;;;;;40.30;13.98;;;-0.30;99.90;;;;;;4983740;28;20047;-69
2023/12/03 00:34:19;;;;;;;41.15;15.52;;;-0.20;99.90;;;;;;4979456;28;20026;-70
2023/12/03 00:36:44;;;;;;;40.65;14.93;;;-0.30;99.90;;;;;;4982484;28;20027;-69
2023/12/03 00:39:11;;;;;;;41.72;14.95;;;-0.30;99.90;;;;;;4980486;28;20085;-69
2023/12/03 00:41:37;;;;;;;35.60;13.77;;;-0.30;99.90;;;;;;4981850;28;20030;-69
2023/12/03 00:44:02;;;;;;;42.03;16.52;;;-0.30;99.90;;;;;;4982614;28;20038;-69
2023/12/03 00:46:28;;;;;;;40.72;16.13;;;-0.30;99.90;;;;;;4962278;28;20064;-69
2023/12/03 00:48:53;;;;;;;33.65;14.15;;;-0.20;99.90;;;;;;4980441;28;20812;-69
2023/12/03 00:51:19;;;;;;;38.38;16.42;;;-0.20;99.90;;;;;;4982685;28;20031;-70
2023/12/03 00:53:45;;;;;;;40.67;16.73;;;-0.20;99.90;;;;;;4960350;28;20030;-68
2023/12/03 00:56:10;;;;;;;40.88;15.20;;;-0.30;99.90;;;;;;4981316;28;20042;-68
2023/12/03 00:58:37;;;;;;;39.97;14.93;;;-0.20;99.90;;;;;;4981970;28;20093;-69
2023/12/03 01:01:03;;;;;;;44.25;16.83;;;-0.20;99.90;;;;;;4975463;28;20585;-69
2023/12/03 01:03:28;;;;;;;45.55;15.70;;;-0.20;99.90;;;;;;4958487;28;20430;-69
2023/12/03 01:05:54;;;;;;;34.85;14.63;;;-0.30;99.90;;;;;;4982073;28;20019;-69
2023/12/03 01:08:20;;;;;;;34.90;12.98;;;-0.30;99.90;;;;;;4982875;28;20037;-70
2023/12/03 01:10:48;;;;;;;38.72;16.00;;;-0.20;99.90;;;;;;4980659;28;20033;-70
2023/12/03 01:13:14;;;;;;;46.88;15.25;;;-0.20;99.90;;;;;;4984435;28;20034;-69
2023/12/03 01:15:39;;;;;;;41.42;16.45;;;-0.10;99.90;;;;;;4968807;28;20038;-70
2023/12/03 01:18:05;;;;;;;36.53;13.43;;;-0.10;99.90;;;;;;4962741;28;20234;-69
2023/12/03 01:20:30;;;;;;;33.60;12.35;;;-0.10;99.90;;;;;;4966036;28;20070;-70
2023/12/03 01:22:56;;;;;;;41.58;16.98;;;-0.10;99.90;;;;;;4975752;28;20019;-69
2023/12/03 01:25:22;;;;;;;35.90;15.20;;;-0.10;99.90;;;;;;4965380;28;20080;-66
2023/12/03 01:27:47;;;;;;;33.28;12.32;;;-0.10;99.90;;;;;;4980410;28;20486;-67
2023/12/03 01:30:16;;;;;;;35.75;14.07;;;-0.10;99.90;;;;;;4982951;28;20061;-66
2023/12/03 01:32:42;;;;;;;28.55;10.85;;;-0.10;99.90;;;;;;4962093;28;20482;-67
2023/12/03 01:35:08;;;;;;;26.95;9.85;;;0.00;99.90;;;;;;4984782;28;20058;-66
2023/12/03 01:37:33;;;;;;;32.30;12.23;;;0.00;99.90;;;;;;4962089;28;20499;-66
2023/12/03 01:39:59;;;;;;;35.03;14.25;;;-0.10;99.90;;;;;;4964006;28;20030;-66
2023/12/03 01:42:25;;;;;;;38.40;15.43;;;-0.10;99.90;;;;;;4979271;28;20033;-67
2023/12/03 01:44:51;;;;;;;38.15;14.48;;;-0.10;99.90;;;;;;4962014;28;20026;-67
2023/12/03 01:47:18;;;;;;;31.60;12.82;;;-0.10;99.90;;;;;;4976090;28;20374;-66
2023/12/03 01:49:44;;;;;;;31.15;11.52;;;-0.10;99.90;;;;;;4980325;28;20034;-66
2023/12/03 01:52:11;;;;;;;35.92;12.63;;;-0.10;99.90;;;;;;4962072;28;20038;-66
2023/12/03 01:54:42;;;;;;;25.52;12.05;;;-0.20;99.90;;;;;;4979229;28;20035;-66
2023/12/03 01:57:08;;;;;;;;;;;-0.20;99.90;;;;;;4964539;28;20018;-67
2023/12/03 01:59:34;;;;;;;38.53;13.23;;;-0.20;99.90;;;;;;4967955;28;20360;-66
2023/12/03 02:02:02;;;;;;;35.60;12.85;;;-0.20;99.90;;;;;;4976074;28;20134;-66
2023/12/03 02:04:27;;;;;;;28.45;10.82;;;-0.20;99.90;;;;;;4982306;28;20336;-66
2023/12/03 02:06:53;;;;;;;35.47;15.10;;;-0.20;99.90;;;;;;4963020;28;20517;-65
2023/12/03 02:09:19;;;;;;;30.15;10.40;;;-0.30;99.90;;;;;;4973325;28;20110;-66
2023/12/03 02:11:45;;;;;;;39.97;14.18;;;-0.30;99.90;;;;;;4958168;28;20104;-66
2023/12/03 02:14:11;;;;;;;35.20;13.68;;;-0.20;99.90;;;;;;4977881;28;20525;-66
2023/12/03 02:16:37;;;;;;;35.33;14.70;;;0.20;99.90;;;;;;4977361;28;20030;-66
2023/12/03 02:19:03;;;;;;;30.95;12.75;;;-0.20;99.90;;;;;;4976917;28;20093;-66
2023/12/03 02:21:29;;;;;;;36.22;13.35;;;-0.20;99.90;;;;;;4968650;28;20073;-66
2023/12/03 02:23:55;;;;;;;33.67;12.15;;;-0.30;99.90;;;;;;4964694;28;20030;-66
2023/12/03 02:26:21;;;;;;;51.53;16.05;;;-0.20;99.90;;;;;;4962297;28;20026;-66
2023/12/03 02:28:47;;;;;;;45.08;18.30;;;-0.30;99.90;;;;;;4963620;28;20031;-66
2023/12/03 02:31:14;;;;;;;26.77;10.13;;;-0.20;99.90;;;;;;4961122;28;20561;-67
2023/12/03 02:33:42;;;;;;;35.47;10.85;;;-0.30;99.90;;;;;;4975478;28;20026;-66
2023/12/03 02:36:08;;;;;;;27.88;11.98;;;-0.20;99.90;;;;;;4957487;28;20053;-66
2023/12/03 02:38:36;;;;;;;42.67;16.70;;;-0.20;99.90;;;;;;4977975;28;20026;-66
2023/12/03 02:41:02;;;;;;;41.20;14.15;;;-0.20;99.90;;;;;;4975096;28;20038;-66
2023/12/03 02:43:28;;;;;;;41.67;16.65;;;-0.20;99.90;;;;;;4965686;28;20030;-68
2023/12/03 02:45:53;;;;;;;27.58;11.00;;;-0.20;99.90;;;;;;4960304;28;20081;-67
2023/12/03 02:48:19;;;;;;;40.22;14.27;;;-0.20;99.90;;;;;;4979942;28;20026;-67
2023/12/03 02:50:47;;;;;;;29.58;10.43;;;-0.20;99.90;;;;;;4975373;28;20030;-67
2023/12/03 02:53:12;;;;;;;35.92;12.05;;;-0.10;99.90;;;;;;4978234;28;20389;-67
2023/12/03 02:55:38;;;;;;;34.20;13.43;;;-0.10;99.90;;;;;;4973964;28;20033;-67
2023/12/03 02:58:04;;;;;;;34.22;12.32;;;-0.10;99.90;;;;;;4972870;28;20431;-67
2023/12/03 03:00:29;;;;;;;37.13;13.98;;;-0.10;99.90;;;;;;4969310;28;20022;-66
2023/12/03 03:02:55;;;;;;;42.25;15.43;;;0.00;99.90;;;;;;4977921;28;20042;-67
2023/12/03 03:05:21;;;;;;;41.10;15.07;;;0.00;99.90;;;;;;4975030;28;20109;-66
2023/12/03 03:07:46;;;;;;;38.10;13.88;;;0.00;99.90;;;;;;4978402;28;20014;-67
2023/12/03 03:10:12;;;;;;;37.65;14.40;;;0.00;99.90;;;;;;4978228;28;20144;-67
2023/12/03 03:12:37;;;;;;;39.97;13.43;;;0.00;99.90;;;;;;4975743;28;20129;-66
2023/12/03 03:15:04;;;;;;;39.60;14.57;;;0.00;99.90;;;;;;4979002;28;20039;-67
2023/12/03 03:17:29;;;;;;;44.17;15.60;;;0.00;99.90;;;;;;4975774;28;20031;-67
2023/12/03 03:19:55;;;;;;;26.10;10.93;;;0.00;99.90;;;;;;4966703;28;20053;-67
2023/12/03 03:22:21;;;;;;;38.05;14.10;;;0.10;99.90;;;;;;4956725;28;20027;-67
2023/12/03 03:24:46;;;;;;;37.10;13.95;;;0.10;99.90;;;;;;4975928;28;20030;-67
2023/12/03 03:27:12;;;;;;;47.17;16.05;;;0.10;99.90;;;;;;4959571;28;20076;-66
2023/12/03 03:29:38;;;;;;;34.30;12.15;;;0.10;99.90;;;;;;4956805;28;20613;-67
2023/12/03 03:32:04;;;;;;;47.60;16.38;;;0.10;99.90;;;;;;4973802;28;20549;-67
2023/12/03 03:34:30;;;;;;;38.90;13.95;;;0.10;99.90;;;;;;4976956;28;20461;-67
2023/12/03 03:36:58;;;;;;;44.92;15.32;;;0.10;99.90;;;;;;4975350;28;20030;-66
2023/12/03 03:39:26;;;;;;;44.38;14.50;;;0.10;99.90;;;;;;4974043;28;20039;-66
2023/12/03 03:41:51;;;;;;;46.78;16.98;;;0.10;99.90;;;;;;4958925;28;20031;-67
2023/12/03 03:44:17;;;;;;;49.60;16.77;;;0.10;99.90;;;;;;4977726;28;20534;-69
2023/12/03 03:46:43;;;;;;;42.05;15.88;;;0.10;99.90;;;;;;4977427;28;20113;-69
2023/12/03 03:49:09;;;;;;;44.08;18.50;;;0.00;99.90;;;;;;4976964;28;20041;-69
2023/12/03 03:51:37;;;;;;;28.00;11.57;;;0.10;99.90;;;;;;4979587;28;20061;-69
2023/12/03 03:54:03;;;;;;;44.63;16.05;;;0.10;99.90;;;;;;4978267;28;20039;-69
2023/12/03 03:56:28;;;;;;;44.67;15.30;;;0.10;99.90;;;;;;4980434;28;20045;-69
2023/12/03 03:58:54;;;;;;;43.63;16.42;;;0.10;99.90;;;;;;4962393;28;20038;-68
2023/12/03 04:01:19;;;;;;;39.88;13.32;;;0.10;99.90;;;;;;4986302;28;20038;-68
2023/12/03 04:03:45;;;;;;;44.78;15.65;;;0.20;99.90;;;;;;4987705;28;20030;-70
2023/12/03 04:06:11;;;;;;;25.58;10.18;;;0.20;99.90;;;;;;4988068;28;20500;-68
2023/12/03 04:08:37;;;;;;;33.72;11.35;;;0.20;99.90;;;;;;4979604;28;20029;-68
2023/12/03 04:11:05;;;;;;;30.05;11.38;;;0.20;99.90;;;;;;4979793;28;20027;-70
2023/12/03 04:13:31;;;;;;;31.67;11.55;;;0.20;99.90;;;;;;4981951;28;20110;-68
2023/12/03 04:15:57;;;;;;;28.58;10.63;;;0.20;99.90;;;;;;4981998;28;20117;-69
2023/12/03 04:18:23;;;;;;;40.03;13.30;;;0.20;99.90;;;;;;4979438;28;20409;-68
2023/12/03 04:20:49;;;;;;;30.45;12.80;;;0.20;99.90;;;;;;4978439;28;20102;-68
2023/12/03 04:23:17;;;;;;;32.00;11.95;;;0.20;99.90;;;;;;4960197;28;20228;-68
2023/12/03 04:25:43;;;;;;;38.60;15.35;;;0.20;99.90;;;;;;4978494;28;20057;-68
2023/12/03 04:28:09;;;;;;;46.42;16.05;;;0.20;99.90;;;;;;4978898;28;20026;-69
2023/12/03 04:30:34;;;;;;;35.95;12.18;;;0.20;99.90;;;;;;4975285;28;20394;-69
2023/12/03 04:33:00;;;;;;;44.35;16.23;;;0.20;99.90;;;;;;4961368;28;20049;-69
2023/12/03 04:35:26;;;;;;;50.97;17.52;;;0.20;99.90;;;;;;4978987;28;20117;-69
2023/12/03 04:37:51;;;;;;;42.00;15.75;;;0.20;99.90;;;;;;4959558;28;20138;-70
2023/12/03 04:40:17;;;;;;;36.70;10.30;;;0.20;99.90;;;;;;4978167;28;20061;-69
2023/12/03 04:42:43;;;;;;;42.58;14.90;;;0.20;99.90;;;;;;4961650;28;20648;-69
2023/12/03 04:45:09;;;;;;;33.78;12.80;;;0.20;99.90;;;;;;4979231;28;20486;-70
2023/12/03 04:47:34;;;;;;;44.47;15.40;;;0.20;99.90;;;;;;4978021;28;20076;-70
2023/12/03 04:50:00;;;;;;;41.65;15.65;;;0.20;99.90;;;;;;4977132;28;20027;-69
2023/12/03 04:52:26;;;;;;;34.30;12.68;;;0.30;99.90;;;;;;4978226;28;20030;-69
2023/12/03 04:54:51;;;;;;;34.13;12.57;;;0.20;99.90;;;;;;4979713;28;20054;-67
2023/12/03 04:57:17;;;;;;;38.33;13.23;;;0.30;99.90;;;;;;4980053;28;20018;-67
2023/12/03 04:59:42;;;;;;;33.85;11.85;;;0.30;99.90;;;;;;4977673;28;20058;-67
2023/12/03 05:02:08;;;;;;;43.55;15.57;;;0.30;99.90;;;;;;4977357;28;20080;-67
2023/12/03 05:04:33;;;;;;;23.35;8.93;;;0.30;99.90;;;;;;4959799;28;20026;-67
2023/12/03 05:06:59;;;;;;;37.67;14.27;;;0.30;99.90;;;;;;4960848;28;20544;-66
2023/12/03 05:09:25;;;;;;;29.65;11.45;;;0.30;99.90;;;;;;4979165;28;20019;-67
2023/12/03 05:11:50;;;;;;;39.90;14.48;;;0.30;99.90;;;;;;4975801;28;20031;-66
2023/12/03 05:14:16;;;;;;;22.42;9.20;;;0.20;99.90;;;;;;4981981;28;20035;-67
2023/12/03 05:16:41;;;;;;;30.70;10.48;;;0.20;99.90;;;;;;4961365;28;20137;-67
2023/12/03 05:19:07;;;;;;;33.03;12.07;;;0.20;99.90;;;;;;4978123;28;20042;-67
2023/12/03 05:21:32;;;;;;;37.33;13.82;;;0.20;99.90;;;;;;4976862;28;20441;-67
2023/12/03 05:23:58;;;;;;;41.05;13.65;;;0.10;99.90;;;;;;4979388;28;20036;-66
2023/12/03 05:26:24;;;;;;;40.03;16.08;;;0.10;99.90;;;;;;4977181;28;20033;-68
2023/12/03 05:28:50;;;;;;;38.70;14.50;;;0.10;99.90;;;;;;4977399;28;20042;-66
2023/12/03 05:31:15;;;;;;;44.10;15.63;;;0.10;99.90;;;;;;4959875;28;20041;-68
2023/12/03 05:33:42;;;;;;;26.42;10.20;;;0.10;99.90;;;;;;4978544;28;20872;-67
2023/12/03 05:36:08;;;;;;;39.60;14.40;;;0.10;99.90;;;;;;4976739;28;20478;-67
2023/12/03 05:38:34;;;;;;;27.33;10.93;;;0.10;99.90;;;;;;4977369;28;20042;-66
2023/12/03 05:40:59;;;;;;;28.73;11.10;;;0.10;99.90;;;;;;4979326;28;20519;-66
2023/12/03 05:43:25;;;;;;;38.10;14.85;;;0.20;99.90;;;;;;4976694;28;20026;-67
2023/12/03 05:45:51;;;;;;;34.92;14.73;;;0.20;99.90;;;;;;4977503;28;20400;-66
2023/12/03 05:48:16;;;;;;;31.02;11.93;;;0.10;99.90;;;;;;4978837;28;20053;-67
2023/12/03 05:50:44;;;;;;;41.47;14.68;;;0.20;99.90;;;;;;4976692;28;20034;-67
2023/12/03 05:53:10;;;;;;;43.50;14.50;;;0.20;99.90;;;;;;4959585;28;20093;-67
2023/12/03 05:55:35;;;;;;;38.08;13.52;;;0.20;99.90;;;;;;4978282;28;20026;-67
2023/12/03 05:58:01;;;;;;;29.73;11.50;;;0.20;99.90;;;;;;4978550;28;20529;-67
2023/12/03 06:00:27;;;;;;;39.95;15.23;;;0.20;99.90;;;;;;4974330;28;20035;-67
2023/12/03 06:02:52;;;;;;;35.03;14.35;;;0.20;99.90;;;;;;4979298;28;20034;-67
2023/12/03 06:05:18;;;;;;;37.15;13.15;;;0.20;99.90;;;;;;4960606;28;20026;-65
2023/12/03 06:07:44;;;;;;;33.15;13.43;;;0.10;99.90;;;;;;4977921;28;20085;-65
2023/12/03 06:10:10;;;;;;;35.45;13.57;;;0.20;99.90;;;;;;4977086;28;20511;-67
2023/12/03 06:12:36;;;;;;;32.65;12.32;;;0.20;99.90;;;;;;4961370;28;20030;-67
2023/12/03 06:15:03;;;;;;;21.45;9.35;;;0.20;99.90;;;;;;4980883;28;20088;-67
2023/12/03 06:17:29;;;;;;;31.95;13.13;;;0.30;99.90;;;;;;4959777;28;20227;-66
2023/12/03 06:19:54;;;;;;;33.30;13.02;;;0.30;99.90;;;;;;4976240;28;20403;-67
2023/12/03 06:22:20;;;;;;;32.85;12.60;;;0.30;99.90;;;;;;4978068;28;20085;-67
2023/12/03 06:24:45;;;;;;;32.65;13.20;;;0.20;99.90;;;;;;4977140;28;20068;-66
2023/12/03 06:27:11;;;;;;;30.15;12.15;;;0.20;99.90;;;;;;4976331;28;20106;-66
2023/12/03 06:29:36;;;;;;;21.45;9.02;;;0.30;99.90;;;;;;4977378;28;20117;-67
2023/12/03 06:32:02;;;;;;;34.55;12.82;;;0.30;99.90;;;;;;4976089;28;20031;-67
2023/12/03 06:34:28;;;;;;;31.48;13.18;;;0.30;99.90;;;;;;4975491;28;20093;-66
2023/12/03 06:36:53;;;;;;;32.45;11.90;;;0.30;99.90;;;;;;4977520;28;20034;-66
2023/12/03 06:39:19;;;;;;;28.58;9.82;;;0.30;99.90;;;;;;4978713;28;20340;-66
2023/12/03 06:41:44;;;;;;;25.60;10.35;;;0.30;99.90;;;;;;4957831;28;20027;-67
2023/12/03 06:44:10;;;;;;;32.33;11.60;;;0.40;99.90;;;;;;4978494;28;20402;-67
2023/12/03 06:46:40;;;;;;;33.75;12.35;;;0.40;99.90;;;;;;4977530;28;20053;-68
2023/12/03 06:49:10;;;;;;;35.80;12.35;;;0.40;99.90;;;;;;4977058;28;20018;-67
2023/12/03 06:51:35;;;;;;;27.50;10.15;;;0.40;99.90;;;;;;4958187;28;20031;-66
2023/12/03 06:54:04;;;;;;;30.00;11.70;;;0.40;99.90;;;;;;4977629;28;20036;-68
2023/12/03 06:56:30;;;;;;;32.17;11.20;;;0.40;99.90;;;;;;4962319;28;20620;-67
2023/12/03 06:58:55;;;;;;;26.23;10.35;;;0.40;99.90;;;;;;4975848;28;20030;-67
2023/12/03 07:01:21;;;;;;;21.85;8.30;;;0.40;99.90;;;;;;4956771;28;20119;-67
2023/12/03 07:03:49;;;;;;;26.25;9.82;;;0.40;99.90;;;;;;4978155;28;20026;-66
2023/12/03 07:06:15;;;;;;;21.30;8.18;;;0.40;99.90;;;;;;4976705;28;20033;-67
2023/12/03 07:08:41;;;;;;;23.60;8.98;;;0.40;99.90;;;;;;4957216;28;20538;-67
2023/12/03 07:11:07;;;;;;;23.10;10.15;;;0.40;99.90;;;;;;4977355;28;20052;-67
2023/12/03 07:13:32;;;;;;;24.98;9.85;;;0.40;99.90;;;;;;4961682;28;20620;-66
2023/12/03 07:15:58;;;;;;;30.45;10.90;;;0.50;99.90;;;;;;4957581;28;20035;-66
2023/12/03 07:18:24;;;;;;;29.13;9.98;;;0.40;99.90;;;;;;4976822;28;20061;-66
2023/12/03 07:20:49;;;;;;;21.73;7.80;;;0.40;99.90;;;;;;4976423;28;20121;-65
2023/12/03 07:23:15;;;;;;;25.27;10.48;;;0.40;99.90;;;;;;4979072;28;20023;-65
2023/12/03 07:25:41;;;;;;;25.63;10.38;;;0.40;99.90;;;;;;4961834;28;20158;-66
2023/12/03 07:28:06;;;;;;;25.48;10.35;;;0.40;99.90;;;;;;4979693;28;20516;-64
2023/12/03 07:30:32;;;;;;;24.45;9.25;;;0.40;99.90;;;;;;4974644;28;20031;-67
2023/12/03 07:32:58;;;;;;;21.00;8.88;;;0.40;99.90;;;;;;4978685;28;20034;-65
2023/12/03 07:35:24;;;;;;;18.67;6.82;;;;;;;;;;4979847;28;20038;-66
2023/12/03 07:37:49;;;;;;;13.80;5.57;;;0.40;99.90;;;;;;4978843;28;20034;-66
2023/12/03 07:40:15;;;;;;;26.83;10.70;;;0.40;99.90;;;;;;4960856;28;20374;-65
2023/12/03 07:42:41;;;;;;;22.05;9.15;;;0.50;99.90;;;;;;4980064;28;20057;-65
2023/12/03 07:45:07;;;;;;;27.10;10.45;;;0.40;99.90;;;;;;4977023;28;20109;-66
2023/12/03 07:47:33;;;;;;;25.00;10.02;;;0.40;99.90;;;;;;4978199;28;20034;-66
2023/12/03 07:49:59;;;;;;;31.92;10.18;;;0.40;99.90;;;;;;4980650;28;20030;-66
2023/12/03 07:52:26;;;;;;;27.08;9.13;;;0.50;99.90;;;;;;4979012;28;20031;-66
2023/12/03 07:54:51;;;;;;;25.98;8.30;;;0.50;99.90;;;;;;4960892;28;20027;-67
2023/12/03 07:57:17;;;;;;;28.08;10.52;;;0.50;99.90;;;;;;4964270;28;20089;-66
2023/12/03 07:59:45;;;;;;;25.30;9.90;;;0.50;99.90;;;;;;4960278;28;20539;-66
2023/12/03 08:02:10;;;;;;;18.70;8.00;;;0.50;99.90;;;;;;4964282;28;20464;-66
2023/12/03 08:04:36;;;;;;;23.67;8.60;;;0.50;99.90;;;;;;4978490;28;20408;-66
2023/12/03 08:07:01;;;;;;;22.60;8.80;;;0.50;99.90;;;;;;4978629;28;20027;-66
2023/12/03 08:09:27;;;;;;;25.45;10.38;;;0.60;99.90;;;;;;4980508;28;20027;-66
2023/12/03 08:11:53;;;;;;;20.45;7.55;;;0.60;99.90;;;;;;4979762;28;20109;-66
2023/12/03 08:14:19;;;;;;;24.63;9.20;;;0.60;99.90;;;;;;4964259;28;20317;-66
2023/12/03 08:16:44;;;;;;;26.70;9.32;;;0.60;99.90;;;;;;4979859;28;20097;-65
2023/12/03 08:19:10;;;;;;;22.73;9.43;;;0.70;99.90;;;;;;4962464;28;20039;-65
2023/12/03 08:21:36;;;;;;;25.45;9.70;;;0.60;99.90;;;;;;4960712;28;20157;-66
2023/12/03 08:24:03;;;;;;;22.25;8.60;;;0.70;99.90;;;;;;4980466;28;20068;-68
2023/12/03 08:26:28;;;;;;;21.98;9.20;;;0.70;99.90;;;;;;4983739;28;20104;-67
2023/12/03 08:28:54;;;;;;;21.35;9.50;;;0.70;99.90;;;;;;4980298;28;20031;-69
2023/12/03 08:31:22;;;;;;;27.83;10.02;;;0.60;99.90;;;;;;4961078;28;20647;-68
2023/12/03 08:33:48;;;;;;;23.63;9.45;;;0.70;99.90;;;;;;4977326;28;20450;-67
2023/12/03 08:36:19;;;;;;;24.15;9.55;;;0.70;99.90;;;;;;4976204;28;20089;-68
2023/12/03 08:38:45;;;;;;;24.15;9.77;;;0.80;99.90;;;;;;4960340;28;20034;-68
2023/12/03 08:41:11;;;;;;;24.58;8.88;;;0.80;99.90;;;;;;4978042;28;20479;-67
2023/12/03 08:43:36;;;;;;;22.70;9.43;;;0.90;99.90;;;;;;4974716;28;20019;-68
2023/12/03 08:46:02;;;;;;;18.92;7.30;;;0.90;99.90;;;;;;4965837;28;20019;-68
2023/12/03 08:48:27;;;;;;;18.00;7.95;;;0.90;99.90;;;;;;4975297;28;20090;-68
2023/12/03 08:50:53;;;;;;;22.98;8.98;;;0.80;99.90;;;;;;4982775;28;20038;-67
2023/12/03 08:53:19;;;;;;;24.05;8.98;;;0.70;99.90;;;;;;4977116;28;20046;-67
2023/12/03 08:55:44;;;;;;;22.83;8.98;;;0.80;99.90;;;;;;4979706;28;20026;-67
2023/12/03 08:58:10;;;;;;;30.67;9.80;;;0.90;99.90;;;;;;4985995;28;20026;-68
2023/12/03 09:00:36;;;;;;;20.15;6.50;;;1.20;99.90;;;;;;4973516;28;20123;-68
2023/12/03 09:03:03;;;;;;;23.23;9.07;;;1.50;99.90;;;;;;4969511;28;20054;-68
2023/12/03 09:05:29;;;;;;;20.67;7.80;;;1.90;99.90;;;;;;4979533;28;20022;-67
2023/12/03 09:07:54;;;;;;;22.48;8.32;;;2.20;99.90;;;;;;4980299;28;20026;-67
2023/12/03 09:10:21;;;;;;;21.70;8.27;;;2.40;99.90;;;;;;4980941;28;20030;-67
2023/12/03 09:12:46;;;;;;;17.00;7.55;;;2.50;99.90;;;;;;4980247;28;20021;-67
2023/12/03 09:15:12;;;;;;;25.02;8.85;;;2.80;99.90;;;;;;4982480;28;20486;-67
2023/12/03 09:17:37;;;;;;;20.55;8.65;;;2.90;99.90;;;;;;4965918;28;20089;-67
2023/12/03 09:20:05;;;;;;;17.98;8.27;;;3.10;99.90;;;;;;4985024;28;20069;-67
2023/12/03 09:22:30;;;;;;;20.85;8.13;;;3.30;99.90;;;;;;4981383;28;20030;-67
2023/12/03 09:24:56;;;;;;;20.90;8.73;;;3.60;99.90;;;;;;4977173;28;20037;-66
2023/12/03 09:27:21;;;;;;;23.45;8.38;;;3.90;99.90;;;;;;4969035;28;20074;-67
2023/12/03 09:29:47;;;;;;;19.88;8.20;;;4.00;99.90;;;;;;4968887;28;20038;-68
2023/12/03 09:32:13;;;;;;;19.17;8.35;;;4.00;99.90;;;;;;4974477;28;20031;-68
2023/12/03 09:34:38;;;;;;;16.38;6.82;;;4.00;99.90;;;;;;4979491;28;20019;-65
2023/12/03 09:37:04;;;;;;;16.42;6.57;;;4.30;99.90;;;;;;4973868;28;20181;-65
2023/12/03 09:39:29;;;;;;;16.38;7.20;;;4.50;99.90;;;;;;4967987;28;20029;-65
2023/12/03 09:41:57;;;;;;;21.67;8.07;;;4.40;99.90;;;;;;4968285;28;20117;-65
2023/12/03 09:44:45;;;;;;;19.23;8.02;;;4.00;99.90;;;;;;4974043;28;20026;-65
2023/12/03 09:47:14;;;;;;;21.30;8.30;;;3.80;99.90;;;;;;4977305;28;20588;-63
2023/12/03 09:49:44;;;;;;;19.42;7.15;;;4.10;99.90;;;;;;4965636;28;20022;-63
2023/12/03 09:52:10;;;;;;;15.30;6.18;;;4.60;99.90;;;;;;4986307;28;20065;-64
2023/12/03 09:54:37;;;;;;;16.48;6.97;;;5.00;99.90;;;;;;4970260;28;20512;-66
2023/12/03 09:57:06;;;;;;;18.15;7.47;;;5.10;99.90;;;;;;4984953;28;20033;-65
2023/12/03 09:59:33;;;;;;;18.63;8.05;;;5.10;99.90;;;;;;4968429;28;20036;-65
2023/12/03 10:01:59;;;;;;;19.17;8.13;;;5.00;99.90;;;;;;4955892;28;20031;-63
2023/12/03 10:04:24;;;;;;;21.45;7.88;;;5.00;99.80;;;;;;4960004;28;20337;-63
2023/12/03 10:06:55;;;;;;;17.65;7.53;;;5.00;99.90;;;;;;4965443;28;20031;-63
2023/12/03 10:09:22;;;;;;;18.25;7.22;;;5.30;99.90;;;;;;4976746;28;20041;-63
2023/12/03 10:11:54;;;;;;;19.65;8.40;;;5.50;98.60;;;;;;4978390;28;20030;-65
2023/12/03 10:14:20;;;;;;;18.40;7.50;;;5.30;98.90;;;;;;4979470;28;20082;-66
2023/12/03 10:16:50;;;;;;;21.05;7.75;;;5.20;99.60;;;;;;4976093;28;20030;-64
2023/12/03 10:19:26;;;;;;;18.65;7.38;;;5.40;99.40;;;;;;4965724;28;20053;-64
2023/12/03 10:21:53;;;;;;;20.42;8.88;;;5.60;99.20;;;;;;4974218;28;20034;-64
2023/12/03 10:24:19;;;;;;;19.45;7.38;;;6.10;95.50;;;;;;4974522;28;20026;-64
2023/12/03 10:26:56;;;;;;;20.67;8.75;;;5.90;96.10;;;;;;4961254;28;20031;-69
2023/12/03 10:29:32;;;;;;;19.77;8.18;;;5.50;97.90;;;;;;4980988;28;20118;-65
2023/12/03 10:31:58;;;;;;;19.08;6.65;;;5.40;98.30;;;;;;4973155;28;20038;-62
2023/12/03 10:34:24;;;;;;;18.30;7.70;;;5.60;97.90;;;;;;4975386;28;20031;-63
2023/12/03 10:36:50;;;;;;;12.60;5.85;;;5.90;96.70;;;;;;4973360;28;20045;-63
2023/12/03 10:39:19;;;;;;;19.50;7.95;;;6.00;95.80;;;;;;4976232;28;20474;-62
2023/12/03 10:41:46;;;;;;;18.17;7.97;;;5.80;97.90;;;;;;4977954;28;20014;-61
2023/12/03 10:44:30;;;;;;;18.77;6.93;;;6.00;96.70;;;;;;4966460;28;20117;-67
2023/12/03 10:46:56;;;;;;;20.92;7.97;;;6.10;96.60;;;;;;4975854;28;20023;-66
2023/12/03 10:49:27;;;;;;;19.15;8.13;;;5.80;96.10;;;;;;4963552;28;20031;-65
2023/12/03 10:51:55;;;;;;;12.80;5.60;;;5.70;96.20;;;;;;4978338;28;20038;-65
2023/12/03 10:54:23;;;;;;;20.15;7.32;;;5.60;96.40;;;;;;4986591;28;20077;-65
2023/12/03 10:56:54;;;;;;;19.60;7.97;;;5.30;98.20;;;;;;4987412;28;20466;-65
2023/12/03 10:59:23;;;;;;;18.33;7.00;;;5.60;97.30;;;;;;4992540;28;20109;-65
2023/12/03 11:01:54;;;;;;;17.95;7.53;;;5.90;96.30;;;;;;4971979;28;20068;-63
2023/12/03 11:04:28;;;;;;;18.40;7.05;;;6.00;95.70;;;;;;4979112;28;20026;-64
2023/12/03 11:06:55;;;;;;;17.98;7.68;;;5.60;96.90;;;;;;4982376;28;20433;-64
2023/12/03 11:09:21;;;;;;;20.13;7.13;;;5.10;98.50;;;;;;4973585;28;20019;-64
2023/12/03 11:11:47;;;;;;;19.02;6.25;;;4.70;98.90;;;;;;4974605;28;20027;-64
2023/12/03 11:14:15;;;;;;;21.10;8.45;;;4.40;99.70;;;;;;4978326;28;20367;-66
2023/12/03 11:17:17;;;;;;;17.48;5.30;;;4.40;99.90;;;;;;4972580;28;20031;-66
2023/12/03 11:19:48;;;;;;;18.85;7.43;;;4.60;99.30;;;;;;4978007;28;20536;-63
2023/12/03 11:22:48;;;;;;;18.13;7.38;;;5.10;99.60;;;;;;4980123;28;20030;-63
2023/12/03 11:25:23;;;;;;;18.65;8.23;;;5.90;96.60;;;;;;4974534;28;20014;-63
2023/12/03 11:27:51;;;;;;;19.85;8.00;;;6.30;95.80;;;;;;4975679;28;20023;-63
2023/12/03 11:30:35;;;;;;;18.77;6.63;;;6.70;93.90;;;;;;4956139;28;20490;-63
2023/12/03 11:33:01;;;;;;;20.40;7.80;;;7.00;93.00;;;;;;4970777;28;20031;-63
2023/12/03 11:35:26;;;;;;;19.75;7.32;;;7.30;90.20;;;;;;4960635;28;20544;-65
2023/12/03 11:37:52;;;;;;;17.70;7.72;;;7.00;90.80;;;;;;4968545;28;20027;-65
2023/12/03 11:40:32;;;;;;;18.52;8.00;;;6.80;91.00;;;;;;4963203;28;20081;-65
2023/12/03 11:42:58;;;;;;;;;;;6.70;92.10;;;;;;4981130;28;20022;-63
2023/12/03 11:45:29;;;;;;;19.88;7.85;;;7.10;93.30;;;;;;4976950;28;20266;-63
2023/12/03 11:48:06;;;;;;;19.90;8.25;;;7.60;89.20;;;;;;4972637;28;20022;-63
2023/12/03 11:50:43;;;;;;;19.17;7.53;;;7.80;86.30;;;;;;4977088;28;20023;-63
2023/12/03 11:53:13;;;;;;;18.73;8.10;;;7.40;87.30;;;;;;4981763;28;20046;-63
2023/12/03 11:55:39;;;;;;;16.13;7.07;;;7.00;89.80;;;;;;4983660;28;20061;-65
2023/12/03 11:58:05;;;;;;;17.33;7.30;;;6.50;91.60;;;;;;4985742;28;20031;-66
2023/12/03 12:00:32;;;;;;;20.05;7.68;;;6.40;94.00;;;;;;4987608;28;20031;-65
2023/12/03 12:02:59;;;;;;;17.92;6.95;;;6.70;93.00;;;;;;4966532;28;20030;-65
2023/12/03 12:05:25;;;;;;;20.27;7.47;;;7.00;92.40;;;;;;4977259;28;20025;-64
2023/12/03 12:08:01;;;;;;;21.98;8.43;;;7.20;91.60;;;;;;4969922;28;20026;-64
2023/12/03 12:10:31;;;;;;;22.38;8.45;;;7.10;91.80;;;;;;4986847;28;20036;-66
2023/12/03 12:12:58;;;;;;;17.17;7.35;;;6.60;91.40;;;;;;4988489;28;20474;-66
2023/12/03 12:15:25;;;;;;;26.70;9.20;;;5.90;93.20;;;;;;4984671;28;20383;-66
2023/12/03 12:17:51;;;;;;;21.98;8.10;;;5.30;96.50;;;;;;4986635;28;20053;-67
2023/12/03 12:20:30;;;;;;;22.98;9.55;;;4.80;98.30;;;;;;4982723;28;20039;-66
2023/12/03 12:22:56;;;;;;;23.25;9.20;;;4.20;99.90;;;;;;4983611;28;20081;-66
2023/12/03 12:25:24;;;;;;;22.63;9.48;;;3.90;99.90;;;;;;4982284;28;20428;-66
2023/12/03 12:27:51;;;;;;;20.67;8.40;;;3.80;99.90;;;;;;4988795;28;20022;-66
2023/12/03 12:30:23;;;;;;;20.58;8.43;;;4.00;99.90;;;;;;4985450;28;20501;-66
2023/12/03 12:32:54;;;;;;;18.90;6.55;;;4.30;99.90;;;;;;4980271;28;20041;-66
2023/12/03 12:35:24;;;;;;;22.52;9.45;;;4.60;99.20;;;;;;4982409;28;20426;-66
2023/12/03 12:38:06;;;;;;;25.75;8.57;;;4.70;99.70;;;;;;4971477;28;20018;-66